Time;durP1;ratioP1;P1;durP2;ratioP2;P2;SDS_P1;SDS_P2;PMS_P1;PMS_P2;Temp;Humidity;BMP_temperature;BMP_pressure;BME280_temperature;BME280_humidity;BME280_pressure;Samples;Min_cycle;Max_cycle;Signal;HPM_P1;HPM_P2
2024/02/15 00:02:21;;;;;;;33.77;23.27;;;;;;;;;;4998406;28;20986;-85
2024/02/15 00:04:47;;;;;;;33.97;22.73;;;;;;;;;;4961861;28;20657;-83
2024/02/15 00:07:22;;;;;;;34.27;23.03;;;;;;;;;;4962710;28;20228;-85
2024/02/15 00:09:53;;;;;;;34.57;23.80;;;;;;;;;;4984534;28;20304;-84
2024/02/15 00:12:19;;;;;;;38.17;23.70;;;;;;;;;;4965933;28;20228;-84
2024/02/15 00:14:47;;;;;;;36.23;23.60;;;;;;;;;;4994198;28;20212;-85
2024/02/15 00:17:12;;;;;;;39.57;24.87;;;;;;;;;;4979223;28;20224;-83
2024/02/15 00:19:43;;;;;;;40.50;25.70;;;;;;;;;;4985731;28;20282;-84
2024/02/15 00:22:09;;;;;;;41.77;25.27;;;;;;;;;;5008561;28;20259;-84
2024/02/15 00:24:39;;;;;;;43.40;26.20;;;;;;;;;;4983749;28;20771;-83
2024/02/15 00:27:05;;;;;;;47.97;27.23;;;;;;;;;;4960048;28;20229;-85
2024/02/15 00:29:31;;;;;;;45.40;27.07;;;;;;;;;;4981989;28;20298;-82
2024/02/15 00:31:57;;;;;;;46.53;27.73;;;;;;;;;;4979065;28;20224;-85
2024/02/15 00:34:26;;;;;;;49.43;28.20;;;;;;;;;;4982501;28;20216;-84
2024/02/15 00:36:54;;;;;;;49.80;29.17;;;;;;;;;;4960805;28;20223;-87
2024/02/15 00:39:25;;;;;;;50.33;29.20;;;;;;;;;;4967069;28;20300;-83
2024/02/15 00:41:55;;;;;;;50.13;29.33;;;;;;;;;;4970662;28;20220;-84
2024/02/15 00:44:21;;;;;;;47.67;28.90;;;;;;;;;;4972247;28;20232;-84
2024/02/15 00:46:47;;;;;;;48.47;29.77;;;;;;;;;;4983280;28;20252;-83
2024/02/15 00:49:13;;;;;;;50.30;29.70;;;;;;;;;;4996075;28;20228;-85
2024/02/15 00:51:38;;;;;;;48.80;29.67;;;;;;;;;;4972826;28;21044;-84
2024/02/15 00:54:09;;;;;;;48.83;29.43;;;;;;;;;;4960006;28;20744;-83
2024/02/15 00:56:34;;;;;;;52.20;30.63;;;;;;;;;;4959460;28;20231;-84
2024/02/15 00:59:03;;;;;;;49.90;29.70;;;;;;;;;;5014774;28;20243;-86
2024/02/15 01:01:28;;;;;;;51.20;30.03;;;;;;;;;;4999136;28;20247;-83
2024/02/15 01:03:56;;;;;;;48.90;28.73;;;;;;;;;;4975535;28;20276;-83
2024/02/15 01:06:25;;;;;;;47.50;29.90;;;;;;;;;;4997713;28;20228;-83
2024/02/15 01:08:51;;;;;;;49.37;29.07;;;;;;;;;;4983259;28;20231;-83
2024/02/15 01:11:19;;;;;;;46.97;28.23;;;;;;;;;;4991923;28;20205;-83
2024/02/15 01:13:47;;;;;;;48.33;27.80;;;;;;;;;;4988863;28;20220;-85
2024/02/15 01:16:15;;;;;;;43.47;26.90;;;;;;;;;;5000190;28;20222;-86
2024/02/15 01:18:40;;;;;;;44.83;27.40;;;;;;;;;;4968276;28;20307;-86
2024/02/15 01:21:11;;;;;;;46.27;27.57;;;;;;;;;;4964235;28;20298;-84
2024/02/15 01:23:39;;;;;;;46.43;27.53;;;;;;;;;;4964744;28;20224;-85
2024/02/15 01:26:04;;;;;;;44.63;27.67;;;;;;;;;;4962378;28;20247;-84
2024/02/15 01:28:30;;;;;;;47.80;27.60;;;;;;;;;;4975854;28;20702;-83
2024/02/15 01:30:56;;;;;;;44.97;26.57;;;;;;;;;;4988901;28;20243;-82
2024/02/15 01:33:21;;;;;;;45.80;25.47;;;;;;;;;;4976659;28;20303;-84
2024/02/15 01:35:48;;;;;;;41.73;26.13;;;;;;;;;;4957302;28;20705;-83
2024/02/15 01:38:14;;;;;;;43.83;26.90;;;;;;;;;;4963700;28;20281;-84
2024/02/15 01:40:44;;;;;;;44.93;27.33;;;;;;;;;;4970349;28;20228;-83
2024/02/15 01:43:12;;;;;;;45.73;27.47;;;;;;;;;;5000056;28;20225;-82
2024/02/15 01:45:46;;;;;;;48.30;27.73;;;;;;;;;;4964717;28;20309;-84
2024/02/15 01:48:17;;;;;;;44.00;26.67;;;;;;;;;;4991734;28;20611;-82
2024/02/15 01:50:43;;;;;;;40.03;25.90;;;;;;;;;;4977576;28;20242;-82
2024/02/15 01:53:08;;;;;;;41.67;27.33;;;;;;;;;;4986188;28;20681;-83
2024/02/15 01:55:34;;;;;;;47.20;27.93;;;;;;;;;;4974872;28;20220;-83
2024/02/15 01:58:03;;;;;;;46.00;28.23;;;;;;;;;;4956856;28;20244;-84
2024/02/15 02:00:33;;;;;;;51.27;28.83;;;;;;;;;;4961454;28;20224;-81
2024/02/15 02:03:03;;;;;;;51.03;29.70;;;;;;;;;;4960996;28;20425;-83
2024/02/15 02:05:31;;;;;;;48.67;29.03;;;;;;;;;;4986519;28;20235;-81
2024/02/15 02:08:04;;;;;;;46.83;28.57;;;;;;;;;;4984359;28;20232;-82
2024/02/15 02:10:32;;;;;;;48.73;29.13;;;;;;;;;;4981115;28;20211;-83
2024/02/15 02:13:01;;;;;;;45.73;27.97;;;;;;;;;;4962605;28;20258;-82
2024/02/15 02:15:26;;;;;;;46.33;28.27;;;;;;;;;;4995770;28;20269;-82
2024/02/15 02:17:52;;;;;;;46.83;28.13;;;;;;;;;;4987580;28;20223;-82
2024/02/15 02:20:23;;;;;;;44.50;28.27;;;;;;;;;;4987290;28;20249;-83
2024/02/15 02:22:51;;;;;;;42.90;27.43;;;;;;;;;;4981436;28;20304;-82
2024/02/15 02:25:16;;;;;;;45.33;28.27;;;;;;;;;;4998527;28;20722;-83
2024/02/15 02:27:44;;;;;;;43.60;28.77;;;;;;;;;;5001035;28;20224;-81
2024/02/15 02:30:18;;;;;;;47.70;29.13;;;;;;;;;;4965455;28;20228;-82
2024/02/15 02:32:46;;;;;;;46.57;28.57;;;;;;;;;;4973861;28;20308;-83
2024/02/15 02:35:15;;;;;;;44.80;29.10;;;;;;;;;;4987001;28;20224;-82
2024/02/15 02:37:43;;;;;;;43.47;28.07;;;;;;;;;;4993968;28;20229;-82
2024/02/15 02:40:09;;;;;;;47.13;27.93;;;;;;;;;;4975586;28;20228;-82
2024/02/15 02:42:56;;;;;;;42.43;26.27;;;;;;;;;;4980524;28;20256;-82
2024/02/15 02:45:23;;;;;;;43.07;26.50;;;;;;;;;;5014152;28;20248;-83
2024/02/15 02:47:49;;;;;;;40.17;26.63;;;;;;;;;;4995384;28;20231;-83
2024/02/15 02:50:15;;;;;;;43.23;26.67;;;;;;;;;;4990144;28;20227;-83
2024/02/15 02:52:40;;;;;;;43.53;26.97;;;;;;;;;;5013870;28;20220;-82
2024/02/15 02:55:08;;;;;;;40.67;26.17;;;;;;;;;;4960988;28;20216;-82
2024/02/15 02:57:37;;;;;;;39.50;25.67;;;;;;;;;;5001735;28;20228;-83
2024/02/15 03:00:12;;;;;;;41.40;27.03;;;;;;;;;;4996687;28;20318;-82
2024/02/15 03:02:38;;;;;;;40.83;26.00;;;;;;;;;;4974876;28;20303;-83
2024/02/15 03:05:08;;;;;;;40.63;25.90;;;;;;;;;;4976261;28;20666;-83
2024/02/15 03:07:36;;;;;;;40.40;25.47;;;;;;;;;;4984716;28;20771;-82
2024/02/15 03:10:07;;;;;;;42.30;26.00;;;;;;;;;;4964602;28;20213;-85
2024/02/15 03:12:36;;;;;;;41.03;25.67;;;;;;;;;;4985012;28;20215;-81
2024/02/15 03:15:10;;;;;;;40.70;25.60;;;;;;;;;;4982637;28;20224;-84
2024/02/15 03:17:38;;;;;;;38.43;25.77;;;;;;;;;;4996863;28;20744;-82
2024/02/15 03:20:11;;;;;;;39.70;24.90;;;;;;;;;;4985581;28;20235;-82
2024/02/15 03:22:41;;;;;;;35.93;24.07;;;;;;;;;;4973409;28;20239;-83
2024/02/15 03:25:07;;;;;;;37.23;24.97;;;;;;;;;;4981685;28;20229;-82
2024/02/15 03:27:37;;;;;;;39.20;24.97;;;;;;;;;;4993538;28;20314;-82
2024/02/15 03:30:07;;;;;;;41.43;26.27;;;;;;;;;;4995778;28;20224;-81
2024/02/15 03:32:35;;;;;;;39.13;25.23;;;;;;;;;;5007266;28;20248;-81
2024/02/15 03:35:03;;;;;;;40.73;25.27;;;;;;;;;;4994082;28;20239;-82
2024/02/15 03:37:29;;;;;;;39.80;24.60;;;;;;;;;;4981756;28;20231;-82
2024/02/15 03:39:54;;;;;;;39.27;24.77;;;;;;;;;;4953977;28;20283;-84
2024/02/15 03:42:20;;;;;;;37.50;24.60;;;;;;;;;;4963875;28;21158;-83
2024/02/15 03:44:50;;;;;;;36.27;24.03;;;;;;;;;;4967129;28;20247;-81
2024/02/15 03:47:16;;;;;;;34.40;22.73;;;;;;;;;;4990170;28;20320;-82
2024/02/15 03:49:42;;;;;;;36.40;23.43;;;;;;;;;;4982960;28;20217;-81
2024/02/15 03:52:10;;;;;;;34.60;22.77;;;;;;;;;;4972475;28;20252;-85
2024/02/15 03:54:38;;;;;;;38.83;23.63;;;;;;;;;;4966867;28;20225;-82
2024/02/15 03:57:11;;;;;;;37.87;23.43;;;;;;;;;;4981199;28;20225;-82
2024/02/15 04:03:32;;;;;;;39.13;23.43;;;;;;;;;;5022380;28;20235;-84
2024/02/15 04:06:00;;;;;;;37.73;22.63;;;;;;;;;;4989948;28;20284;-83
2024/02/15 04:08:26;;;;;;;35.63;23.40;;;;;;;;;;4978999;28;20232;-85
2024/02/15 04:10:53;;;;;;;38.70;24.20;;;;;;;;;;4984967;28;20217;-82
2024/02/15 04:13:19;;;;;;;38.13;24.17;;;;;;;;;;4977161;28;20346;-82
2024/02/15 04:15:46;;;;;;;40.03;24.50;;;;;;;;;;4975876;28;20216;-82
2024/02/15 04:18:17;;;;;;;38.57;24.33;;;;;;;;;;4997866;28;20899;-83
2024/02/15 04:20:45;;;;;;;37.47;24.17;;;;;;;;;;4995733;28;20244;-83
2024/02/15 04:23:13;;;;;;;39.90;24.30;;;;;;;;;;4969548;28;20220;-83
2024/02/15 04:25:40;;;;;;;39.50;24.97;;;;;;;;;;4979173;28;20232;-82
2024/02/15 04:28:08;;;;;;;38.80;24.70;;;;;;;;;;4978098;28;20916;-83
2024/02/15 04:30:34;;;;;;;45.27;26.77;;;;;;;;;;5010675;28;20225;-82
2024/02/15 04:33:05;;;;;;;46.87;26.70;;;;;;;;;;4994129;28;20970;-82
2024/02/15 04:35:31;;;;;;;42.80;26.67;;;;;;;;;;5005366;28;20227;-83
2024/02/15 04:37:57;;;;;;;45.73;27.37;;;;;;;;;;4991447;28;20236;-83
2024/02/15 04:40:25;;;;;;;48.47;26.57;;;;;;;;;;4987860;28;20272;-83
2024/02/15 04:42:56;;;;;;;44.10;27.47;;;;;;;;;;4980436;28;20254;-82
2024/02/15 04:45:22;;;;;;;41.60;26.07;;;;;;;;;;4963858;28;20237;-83
2024/02/15 04:47:52;;;;;;;48.73;28.73;;;;;;;;;;4981290;28;20605;-83
2024/02/15 04:50:18;;;;;;;47.83;27.77;;;;;;;;;;4988308;28;20232;-80
2024/02/15 04:52:49;;;;;;;44.53;27.87;;;;;;;;;;4997460;28;20321;-79
2024/02/15 04:55:17;;;;;;;49.03;28.30;;;;;;;;;;4978237;28;20301;-78
2024/02/15 04:57:43;;;;;;;49.80;28.90;;;;;;;;;;5009364;28;20780;-79
2024/02/15 05:00:11;;;;;;;50.33;29.57;;;;;;;;;;4984855;28;20224;-79
2024/02/15 05:02:40;;;;;;;53.07;30.27;;;;;;;;;;4980782;28;20740;-79
2024/02/15 05:05:07;;;;;;;50.63;29.73;;;;;;;;;;4980024;28;20279;-80
2024/02/15 05:07:37;;;;;;;53.20;30.03;;;;;;;;;;4988275;28;20225;-78
2024/02/15 05:10:06;;;;;;;49.50;29.83;;;;;;;;;;4993461;28;20273;-79
2024/02/15 05:12:34;;;;;;;51.90;30.23;;;;;;;;;;4979120;28;20792;-79
2024/02/15 05:15:10;;;;;;;52.60;30.43;;;;;;;;;;4984120;28;20220;-81
2024/02/15 05:17:42;;;;;;;50.33;29.97;;;;;;;;;;4997434;28;20231;-81
2024/02/15 05:20:11;;;;;;;49.27;29.13;;;;;;;;;;5001588;28;20223;-80
2024/02/15 05:22:40;;;;;;;51.47;29.37;;;;;;;;;;4979844;28;20665;-80
2024/02/15 05:25:08;;;;;;;50.80;28.63;;;;;;;;;;5000208;28;20219;-80
2024/02/15 05:27:39;;;;;;;51.53;29.97;;;;;;;;;;4993414;28;20231;-81
2024/02/15 05:30:08;;;;;;;48.17;28.30;;;;;;;;;;5014932;28;21058;-81
2024/02/15 05:32:41;;;;;;;49.83;29.53;;;;;;;;;;4982507;28;20227;-81
2024/02/15 05:35:11;;;;;;;50.60;29.10;;;;;;;;;;4991189;28;20599;-80
2024/02/15 05:37:39;;;;;;;50.40;28.83;;;;;;;;;;4993885;28;20303;-81
2024/02/15 05:40:14;;;;;;;50.00;28.23;;;;;;;;;;4997915;28;20262;-79
2024/02/15 05:42:46;;;;;;;46.07;28.33;;;;;;;;;;5009169;28;20236;-80
2024/02/15 05:45:32;;;;;;;49.93;28.33;;;;;;;;;;4997781;28;20571;-81
2024/02/15 05:47:58;;;;;;;49.90;28.20;;;;;;;;;;5004765;28;20228;-80
2024/02/15 05:50:24;;;;;;;50.70;28.47;;;;;;;;;;4978245;28;20865;-81
2024/02/15 05:52:54;;;;;;;51.77;28.33;;;;;;;;;;4957026;28;20225;-79
2024/02/15 05:55:20;;;;;;;50.13;28.43;;;;;;;;;;4957166;28;20283;-80
2024/02/15 05:57:46;;;;;;;44.57;26.73;;;;;;;;;;4979048;28;20224;-80
2024/02/15 06:00:12;;;;;;;47.47;27.63;;;;;;;;;;4978547;28;20228;-79
2024/02/15 06:02:38;;;;;;;48.50;27.10;;;;;;;;;;4964735;28;20949;-80
2024/02/15 06:05:04;;;;;;;48.10;27.37;;;;;;;;;;5002884;28;20231;-80
2024/02/15 06:07:36;;;;;;;46.87;27.00;;;;;;;;;;4974518;28;20255;-81
2024/02/15 06:10:07;;;;;;;48.37;26.80;;;;;;;;;;4993288;28;20224;-81
2024/02/15 06:12:33;;;;;;;44.50;25.70;;;;;;;;;;4982319;28;20307;-80
2024/02/15 06:14:58;;;;;;;48.27;26.53;;;;;;;;;;5001493;28;20286;-80
2024/02/15 06:17:24;;;;;;;46.33;26.07;;;;;;;;;;4976852;28;20228;-78
2024/02/15 06:19:49;;;;;;;43.33;25.17;;;;;;;;;;4991855;28;20213;-79
2024/02/15 06:22:16;;;;;;;44.87;26.07;;;;;;;;;;4987016;28;20220;-79
2024/02/15 06:24:41;;;;;;;42.70;24.60;;;;;;;;;;4979689;28;20225;-79
2024/02/15 06:27:07;;;;;;;44.17;24.93;;;;;;;;;;4996471;28;20610;-80
2024/02/15 06:40:33;;;;;;;40.20;23.93;;;;;;;;;;4996504;28;21040;-79
2024/02/15 06:42:58;;;;;;;41.97;23.73;;;;;;;;;;4970748;28;20220;-81
2024/02/15 06:45:24;;;;;;;38.03;22.23;;;;;;;;;;4977938;28;20693;-80
2024/02/15 06:47:52;;;;;;;37.90;22.57;;;;;;;;;;4990503;28;20224;-79
2024/02/15 06:50:20;;;;;;;37.43;21.77;;;;;;;;;;4982614;28;20216;-79
2024/02/15 06:52:46;;;;;;;35.93;21.27;;;;;;;;;;4979210;28;20303;-80
2024/02/15 06:55:11;;;;;;;35.13;21.10;;;;;;;;;;4979706;28;20724;-81
2024/02/15 06:57:40;;;;;;;35.53;20.93;;;;;;;;;;4997338;28;20224;-79
2024/02/15 07:00:09;;;;;;;37.40;21.13;;;;;;;;;;4994403;28;20288;-80
2024/02/15 07:02:35;;;;;;;36.73;20.67;;;;;;;;;;4998107;28;20308;-80
2024/02/15 07:05:03;;;;;;;35.77;20.83;;;;;;;;;;5001270;28;20260;-80
2024/02/15 07:07:28;;;;;;;38.00;21.57;;;;;;;;;;4994886;28;20299;-79
2024/02/15 07:09:54;;;;;;;37.73;21.93;;;;;;;;;;4999206;28;20324;-81
2024/02/15 07:12:22;;;;;;;36.93;20.17;;;;;;;;;;5000124;28;20216;-80
2024/02/15 07:14:48;;;;;;;36.07;20.47;;;;;;;;;;4996455;28;20224;-80
2024/02/15 07:17:13;;;;;;;42.83;21.77;;;;;;;;;;4994756;28;20232;-79
2024/02/15 07:19:48;;;;;;;39.47;21.57;;;;;;;;;;4993769;28;20307;-80
2024/02/15 07:22:19;;;;;;;36.40;20.90;;;;;;;;;;4965607;28;20224;-78
2024/02/15 07:24:45;;;;;;;36.90;20.23;;;;;;;;;;4981894;28;20720;-79
2024/02/15 07:27:11;;;;;;;37.07;20.40;;;;;;;;;;4993929;28;20220;-80
2024/02/15 07:29:37;;;;;;;36.80;21.07;;;;;;;;;;5013395;28;20216;-80
2024/02/15 07:32:06;;;;;;;36.43;20.80;;;;;;;;;;4960972;28;20594;-81
2024/02/15 07:34:32;;;;;;;37.27;21.23;;;;;;;;;;4966375;28;20232;-81
2024/02/15 07:37:02;;;;;;;36.37;21.03;;;;;;;;;;4985287;28;20228;-82
2024/02/15 07:39:28;;;;;;;37.60;21.07;;;;;;;;;;4976495;28;20223;-80
2024/02/15 07:41:58;;;;;;;41.50;20.43;;;;;;;;;;4964154;28;20224;-81
2024/02/15 07:44:24;;;;;;;34.40;20.93;;;;;;;;;;4976148;28;20224;-78
2024/02/15 07:46:50;;;;;;;37.10;21.53;;;;;;;;;;4965000;28;20217;-79
2024/02/15 07:49:17;;;;;;;35.70;22.23;;;;;;;;;;4990089;28;20212;-82
2024/02/15 07:51:45;;;;;;;38.20;23.37;;;;;;;;;;5003942;28;20212;-81
2024/02/15 07:54:15;;;;;;;40.47;22.90;;;;;;;;;;4984982;28;20604;-80
2024/02/15 07:56:41;;;;;;;40.00;23.53;;;;;;;;;;4991328;28;20216;-79
2024/02/15 07:59:07;;;;;;;38.37;23.07;;;;;;;;;;4985029;28;20783;-81
2024/02/15 08:01:32;;;;;;;38.10;23.20;;;;;;;;;;4986822;28;20307;-80
2024/02/15 08:03:58;;;;;;;40.23;24.37;;;;;;;;;;4998649;28;20307;-80
2024/02/15 08:06:27;;;;;;;43.07;26.23;;;;;;;;;;4998254;28;20258;-79
2024/02/15 08:08:55;;;;;;;45.27;25.63;;;;;;;;;;4976520;28;20232;-80
2024/02/15 08:11:21;;;;;;;43.97;26.17;;;;;;;;;;5004143;28;20220;-79
2024/02/15 08:13:49;;;;;;;42.40;24.63;;;;;;;;;;4982061;28;20230;-80
2024/02/15 08:16:27;;;;;;;44.73;25.63;;;;;;;;;;4998309;28;20216;-80
2024/02/15 08:18:54;;;;;;;42.70;25.77;;;;;;;;;;4988175;28;20694;-81
2024/02/15 08:21:32;;;;;;;42.73;26.73;;;;;;;;;;4978410;28;20228;-80
2024/02/15 08:24:05;;;;;;;43.40;27.20;;;;;;;;;;5008893;28;20221;-80
2024/02/15 08:26:35;;;;;;;48.10;27.27;;;;;;;;;;5005519;28;20685;-79
2024/02/15 08:29:03;;;;;;;43.77;26.47;;;;;;;;;;4977005;28;20228;-80
2024/02/15 08:31:31;;;;;;;47.10;28.03;;;;;;;;;;4966737;28;20228;-79
2024/02/15 08:33:57;;;;;;;46.83;28.80;;;;;;;;;;4983070;28;20258;-80
2024/02/15 08:36:22;;;;;;;47.93;28.87;;;;;;;;;;4975596;28;20383;-79
2024/02/15 08:38:50;;;;;;;48.00;29.33;;;;;;;;;;4997892;28;20714;-80
2024/02/15 08:41:18;;;;;;;45.13;29.07;;;;;;;;;;4993340;28;20208;-79
2024/02/15 08:43:44;;;;;;;46.73;29.10;;;;;;;;;;4997806;28;20977;-80
2024/02/15 08:46:10;;;;;;;49.43;28.13;;;;;;;;;;5007788;28;20306;-82
2024/02/15 08:48:37;;;;;;;48.63;29.63;;;;;;;;;;4992403;28;20224;-79
2024/02/15 08:51:05;;;;;;;46.00;28.87;;;;;;;;;;4980259;28;20217;-78
2024/02/15 08:53:31;;;;;;;49.50;30.20;;;;;;;;;;4998403;28;20274;-78
2024/02/15 08:55:57;;;;;;;52.77;30.57;;;;;;;;;;4996866;28;20224;-79
2024/02/15 08:58:23;;;;;;;43.97;28.53;;;;;;;;;;4980345;28;20232;-79
2024/02/15 09:00:48;;;;;;;48.13;30.00;;;;;;;;;;4977876;28;20243;-78
2024/02/15 09:03:14;;;;;;;48.57;31.03;;;;;;;;;;4999384;28;20212;-79
2024/02/15 09:05:43;;;;;;;51.93;31.70;;;;;;;;;;4964289;28;20216;-79
2024/02/15 09:08:11;;;;;;;47.60;31.23;;;;;;;;;;4977951;28;20844;-78
2024/02/15 09:10:39;;;;;;;45.83;30.03;;;;;;;;;;4993788;28;20227;-78
2024/02/15 09:13:06;;;;;;;45.43;30.97;;;;;;;;;;4967448;28;20216;-78
2024/02/15 09:15:35;;;;;;;49.87;31.10;;;;;;;;;;5009282;28;20220;-79
2024/02/15 09:18:01;;;;;;;48.57;30.50;;;;;;;;;;4993116;28;21230;-79
2024/02/15 09:20:28;;;;;;;48.43;31.57;;;;;;;;;;5003710;28;20227;-77
2024/02/15 09:22:54;;;;;;;45.07;30.40;;;;;;;;;;4990564;28;20237;-79
2024/02/15 09:25:24;;;;;;;47.00;31.63;;;;;;;;;;4971320;28;20919;-77
2024/02/15 09:27:50;;;;;;;49.53;32.20;;;;;;;;;;4978357;28;20228;-79
2024/02/15 09:30:16;;;;;;;42.87;31.73;;;;;;;;;;4963043;28;20219;-78
2024/02/15 09:32:47;;;;;;;43.70;31.10;;;;;;;;;;4992473;28;20224;-79
2024/02/15 09:35:12;;;;;;;42.13;30.73;;;;;;;;;;4994324;28;20306;-78
2024/02/15 09:37:43;;;;;;;38.47;29.87;;;;;;;;;;4984835;28;20216;-79
2024/02/15 09:40:12;;;;;;;37.27;28.90;;;;;;;;;;4990253;28;20216;-79
2024/02/15 09:42:39;;;;;;;39.07;29.37;;;;;;;;;;4991912;28;20248;-78
2024/02/15 09:45:05;;;;;;;37.20;28.67;;;;;;;;;;4994493;28;20739;-79
2024/02/15 09:47:36;;;;;;;36.57;28.13;;;;;;;;;;4997139;28;20224;-78
2024/02/15 09:50:11;;;;;;;33.03;27.47;;;;;;;;;;4991076;28;20221;-79
2024/02/15 09:52:43;;;;;;;34.03;26.27;;;;;;;;;;4976800;28;20232;-80
2024/02/15 09:55:12;;;;;;;31.97;24.93;;;;;;;;;;4987114;28;20283;-78
2024/02/15 09:57:47;;;;;;;27.83;24.50;;;;;;;;;;4993370;28;20228;-78
2024/02/15 10:00:13;;;;;;;28.67;24.37;;;;;;;;;;5013414;28;20457;-79
2024/02/15 10:02:44;;;;;;;31.47;22.77;;;;;;;;;;4991000;28;20792;-78
2024/02/15 10:05:11;;;;;;;27.20;22.40;;;;;;;;;;4977147;28;20235;-79
2024/02/15 10:07:44;;;;;;;25.80;23.13;;;;;;;;;;4957571;28;20228;-79
2024/02/15 10:10:19;;;;;;;26.17;22.00;;;;;;;;;;4979302;28;20270;-79
2024/02/15 10:12:54;;;;;;;25.37;20.57;;;;;;;;;;5004523;28;20223;-78
2024/02/15 10:15:35;;;;;;;24.13;21.53;;;;;;;;;;4973350;28;20223;-79
2024/02/15 10:18:07;;;;;;;23.30;20.10;;;;;;;;;;4974260;28;20350;-78
2024/02/15 10:20:34;;;;;;;24.23;20.30;;;;;;;;;;5009654;28;20223;-78
2024/02/15 10:22:59;;;;;;;24.27;19.90;;;;;;;;;;4989393;28;20267;-80
2024/02/15 10:25:28;;;;;;;27.00;20.83;;;;;;;;;;5014011;28;20713;-78
2024/02/15 10:28:20;;;;;;;22.37;18.50;;;;;;;;;;4983607;28;20220;-78
2024/02/15 10:30:48;;;;;;;22.97;18.53;;;;;;;;;;5006814;28;20833;-80
2024/02/15 10:33:20;;;;;;;21.30;18.13;;;;;;;;;;4997240;28;20228;-78
2024/02/15 10:35:46;;;;;;;20.27;16.90;;;;;;;;;;4979160;28;20338;-77
2024/02/15 10:38:15;;;;;;;20.67;18.10;;;;;;;;;;4988611;28;20270;-77
2024/02/15 10:40:43;;;;;;;20.00;16.23;;;;;;;;;;4979884;28;20225;-79
2024/02/15 10:43:13;;;;;;;19.40;15.77;;;;;;;;;;4964593;28;20231;-79
2024/02/15 10:45:42;;;;;;;19.47;15.97;;;;;;;;;;4991203;28;20240;-78
2024/02/15 10:48:08;;;;;;;18.97;16.67;;;;;;;;;;4988679;28;20256;-78
2024/02/15 10:50:36;;;;;;;20.10;14.63;;;;;;;;;;4993242;28;20220;-79
2024/02/15 10:53:14;;;;;;;19.00;14.07;;;;;;;;;;4973768;28;20216;-77
2024/02/15 10:55:43;;;;;;;17.33;14.40;;;;;;;;;;4969517;28;20230;-78
2024/02/15 10:58:09;;;;;;;16.27;14.43;;;;;;;;;;4993679;28;20915;-79
2024/02/15 11:00:37;;;;;;;17.00;14.53;;;;;;;;;;4987182;28;20225;-78
2024/02/15 11:03:06;;;;;;;14.70;12.70;;;;;;;;;;4974176;28;20228;-78
2024/02/15 11:05:35;;;;;;;14.27;11.83;;;;;;;;;;4991034;28;20232;-78
2024/02/15 11:08:08;;;;;;;18.93;13.37;;;;;;;;;;4957475;28;20486;-79
2024/02/15 11:10:34;;;;;;;17.57;13.53;;;;;;;;;;4968546;28;20224;-80
2024/02/15 11:13:00;;;;;;;17.00;13.23;;;;;;;;;;4969687;28;20220;-76
2024/02/15 11:15:41;;;;;;;17.03;12.77;;;;;;;;;;4986850;28;20233;-79
2024/02/15 11:18:07;;;;;;;16.33;12.10;;;;;;;;;;4999220;28;20247;-79
2024/02/15 11:20:32;;;;;;;14.73;11.50;;;;;;;;;;4982604;28;20228;-79
2024/02/15 11:22:58;;;;;;;12.67;10.70;;;;;;;;;;5023028;28;20236;-80
2024/02/15 11:25:39;;;;;;;12.67;11.13;;;;;;;;;;4984369;28;20212;-80
2024/02/15 11:28:29;;;;;;;14.17;11.10;;;;;;;;;;4966973;28;20258;-79
2024/02/15 11:30:57;;;;;;;13.13;11.10;;;;;;;;;;5005409;28;20282;-80
2024/02/15 11:33:38;;;;;;;14.43;10.83;;;;;;;;;;4992862;28;20219;-80
2024/02/15 11:36:11;;;;;;;13.00;10.17;;;;;;;;;;4983802;28;20232;-79
2024/02/15 11:38:39;;;;;;;12.13;10.00;;;;;;;;;;4994547;28;20228;-78
2024/02/15 11:41:05;;;;;;;13.83;10.40;;;;;;;;;;4989148;28;20640;-77
2024/02/15 11:43:49;;;;;;;12.17;9.93;;;;;;;;;;4971135;28;20224;-79
2024/02/15 11:46:16;;;;;;;10.83;9.73;;;;;;;;;;5006226;28;20299;-79
2024/02/15 11:48:42;;;;;;;10.07;9.03;;;;;;;;;;4996119;28;20229;-80
2024/02/15 11:51:11;;;;;;;9.13;8.23;;;;;;;;;;4958587;28;20227;-79
2024/02/15 11:53:37;;;;;;;8.47;7.50;;;;;;;;;;4995059;28;20294;-79
2024/02/15 11:56:04;;;;;;;8.97;7.73;;;;;;;;;;4978683;28;20303;-79
2024/02/15 11:58:41;;;;;;;9.27;7.43;;;;;;;;;;4994938;28;20251;-78
2024/02/15 12:20:34;;;;;;;6.10;4.20;;;;;;;;;;4996678;28;20232;-77
2024/02/15 12:23:06;;;;;;;5.30;4.30;;;;;;;;;;5001323;28;20220;-79
2024/02/15 12:25:32;;;;;;;5.83;4.80;;;;;;;;;;4994273;28;20255;-77
2024/02/15 12:28:04;;;;;;;5.40;4.47;;;;;;;;;;4978141;28;20600;-78
2024/02/15 12:30:36;;;;;;;5.33;4.87;;;;;;;;;;4982982;28;20235;-79
2024/02/15 12:33:19;;;;;;;5.87;4.77;;;;;;;;;;4993102;28;20228;-79
2024/02/15 12:35:45;;;;;;;7.17;4.97;;;;;;;;;;4995604;28;20217;-78
2024/02/15 12:38:12;;;;;;;7.37;4.33;;;;;;;;;;4991026;28;20231;-79
2024/02/15 12:40:41;;;;;;;5.43;4.07;;;;;;;;;;4973209;28;20235;-78
2024/02/15 12:43:09;;;;;;;7.17;4.13;;;;;;;;;;4995961;28;20722;-79
2024/02/15 12:45:36;;;;;;;6.67;4.87;;;;;;;;;;4989961;28;20278;-79
2024/02/15 12:48:03;;;;;;;6.40;5.60;;;;;;;;;;4980247;28;20239;-78
2024/02/15 12:50:29;;;;;;;5.77;5.27;;;;;;;;;;4983616;28;20343;-78
2024/02/15 12:52:59;;;;;;;6.53;5.30;;;;;;;;;;4991900;28;20221;-79
2024/02/15 12:55:25;;;;;;;5.60;5.10;;;;;;;;;;4981735;28;20393;-79
2024/02/15 12:57:57;;;;;;;5.47;4.97;;;;;;;;;;5020456;28;20233;-79
2024/02/15 13:00:35;;;;;;;7.37;5.30;;;;;;;;;;4982262;28;20225;-79
2024/02/15 13:03:03;;;;;;;8.07;5.03;;;;;;;;;;5002717;28;20735;-78
2024/02/15 13:05:29;;;;;;;5.97;4.90;;;;;;;;;;4989441;28;20975;-78
2024/02/15 13:07:55;;;;;;;5.63;4.73;;;;;;;;;;4989824;28;20744;-76
2024/02/15 13:10:21;;;;;;;5.70;5.13;;;;;;;;;;4987460;28;20217;-78
2024/02/15 13:12:50;;;;;;;6.53;4.60;;;;;;;;;;4976869;28;20220;-80
2024/02/15 13:15:21;;;;;;;5.57;4.90;;;;;;;;;;4980434;28;20327;-79
2024/02/15 13:17:55;;;;;;;7.40;5.20;;;;;;;;;;4977305;28;20629;-80
2024/02/15 13:20:30;;;;;;;6.07;5.50;;;;;;;;;;5006047;28;20480;-78
2024/02/15 13:22:59;;;;;;;7.37;5.70;;;;;;;;;;4990891;28;20224;-76
2024/02/15 13:25:27;;;;;;;5.70;5.07;;;;;;;;;;5006734;28;20518;-80
2024/02/15 13:27:53;;;;;;;8.37;5.10;;;;;;;;;;4966822;28;20225;-80
2024/02/15 13:30:23;;;;;;;7.67;5.27;;;;;;;;;;5007402;28;20628;-79
2024/02/15 13:32:50;;;;;;;6.10;4.40;;;;;;;;;;4989444;28;20686;-81
2024/02/15 13:35:20;;;;;;;4.80;4.40;;;;;;;;;;4989144;28;20231;-78
2024/02/15 13:37:54;;;;;;;5.87;4.23;;;;;;;;;;4971219;28;20259;-79
2024/02/15 13:40:26;;;;;;;7.03;4.23;;;;;;;;;;4996086;28;20326;-81
2024/02/15 13:42:58;;;;;;;5.57;4.20;;;;;;;;;;4987893;28;20232;-78
2024/02/15 13:45:44;;;;;;;4.83;4.33;;;;;;;;;;4990958;28;20278;-80
2024/02/15 13:48:10;;;;;;;5.03;3.97;;;;;;;;;;4959199;28;20288;-79
2024/02/15 13:50:35;;;;;;;5.97;4.03;;;;;;;;;;5013151;28;20220;-80
2024/02/15 13:53:04;;;;;;;6.23;4.20;;;;;;;;;;4971193;28;20231;-78
2024/02/15 13:55:32;;;;;;;6.67;4.00;;;;;;;;;;4991822;28;20220;-80
2024/02/15 13:57:58;;;;;;;7.63;4.37;;;;;;;;;;4980136;28;20235;-80
2024/02/15 14:00:29;;;;;;;4.17;3.50;;;;;;;;;;4980619;28;20236;-80
2024/02/15 14:02:58;;;;;;;6.77;3.90;;;;;;;;;;5005998;28;20305;-80
2024/02/15 14:05:30;;;;;;;4.27;3.80;;;;;;;;;;5000381;28;21381;-79
2024/02/15 14:07:56;;;;;;;5.00;3.70;;;;;;;;;;4988466;28;20234;-79
2024/02/15 14:10:27;;;;;;;4.57;3.50;;;;;;;;;;4984086;28;20224;-79
2024/02/15 14:13:01;;;;;;;5.43;3.50;;;;;;;;;;4997447;28;20300;-80
2024/02/15 14:15:29;;;;;;;5.87;3.90;;;;;;;;;;4984674;28;20830;-79
2024/02/15 14:17:56;;;;;;;7.43;3.77;;;;;;;;;;5006581;28;20212;-78
2024/02/15 14:20:25;;;;;;;6.60;3.90;;;;;;;;;;4991158;28;20263;-81
2024/02/15 14:22:56;;;;;;;7.63;3.60;;;;;;;;;;4998877;28;20236;-81
2024/02/15 14:25:31;;;;;;;4.40;3.97;;;;;;;;;;4994835;28;20221;-80
2024/02/15 14:27:58;;;;;;;4.43;3.70;;;;;;;;;;5010148;28;20231;-79
2024/02/15 14:33:14;;;;;;;4.07;3.23;;;;;;;;;;5000209;28;20282;-81
2024/02/15 14:35:39;;;;;;;4.30;3.57;;;;;;;;;;5026899;28;20328;-80
2024/02/15 14:38:07;;;;;;;4.57;3.40;;;;;;;;;;4966930;28;20228;-80
2024/02/15 14:40:34;;;;;;;4.10;3.10;;;;;;;;;;4984020;28;20212;-80
2024/02/15 14:43:06;;;;;;;7.00;3.60;;;;;;;;;;4998417;28;20258;-80
2024/02/15 14:45:36;;;;;;;6.93;3.60;;;;;;;;;;5003973;28;20228;-79
2024/02/15 14:48:04;;;;;;;5.00;3.50;;;;;;;;;;4985223;28;20231;-78
2024/02/15 14:50:32;;;;;;;5.43;3.70;;;;;;;;;;4979689;28;20216;-78
2024/02/15 14:52:59;;;;;;;6.23;3.57;;;;;;;;;;5009918;28;20238;-77
2024/02/15 14:55:25;;;;;;;4.30;3.57;;;;;;;;;;4995167;28;20244;-78
2024/02/15 14:57:51;;;;;;;4.90;3.60;;;;;;;;;;5009482;28;20230;-77
2024/02/15 15:00:21;;;;;;;5.07;3.93;;;;;;;;;;5013039;28;20221;-79
2024/02/15 15:02:47;;;;;;;6.37;4.00;;;;;;;;;;5016810;28;20238;-79
2024/02/15 15:13:26;;;;;;;4.87;3.37;;;;;;;;;;4994868;28;20228;-78
2024/02/15 15:15:52;;;;;;;4.53;3.30;;;;;;;;;;5018665;28;20224;-80
2024/02/15 15:18:21;;;;;;;4.27;3.10;;;;;;;;;;4999590;28;20602;-80